sensor_id;sensor_type;location;lat;lon;timestamp;P1;durP1;ratioP1;P2;durP2;ratioP2
18580;SDS011;9420;50.876;7.012;2024-03-02T00:01:29;1.80;;;1.50;;
18580;SDS011;9420;50.876;7.012;2024-03-02T00:03:55;2.13;;;1.13;;
18580;SDS011;9420;50.876;7.012;2024-03-02T00:06:22;5.27;;;1.50;;
18580;SDS011;9420;50.876;7.012;2024-03-02T00:08:49;2.37;;;1.37;;
18580;SDS011;9420;50.876;7.012;2024-03-02T00:11:16;2.30;;;0.83;;
18580;SDS011;9420;50.876;7.012;2024-03-02T00:13:44;3.00;;;1.93;;
18580;SDS011;9420;50.876;7.012;2024-03-02T00:16:11;1.83;;;1.30;;
18580;SDS011;9420;50.876;7.012;2024-03-02T00:18:39;1.67;;;1.30;;
18580;SDS011;9420;50.876;7.012;2024-03-02T00:21:07;2.43;;;1.37;;
18580;SDS011;9420;50.876;7.012;2024-03-02T00:23:36;1.43;;;1.03;;
18580;SDS011;9420;50.876;7.012;2024-03-02T00:26:03;1.57;;;1.07;;
18580;SDS011;9420;50.876;7.012;2024-03-02T00:28:31;1.47;;;0.90;;
18580;SDS011;9420;50.876;7.012;2024-03-02T00:31:01;2.00;;;1.27;;
18580;SDS011;9420;50.876;7.012;2024-03-02T00:33:33;1.97;;;1.03;;
18580;SDS011;9420;50.876;7.012;2024-03-02T00:36:02;1.47;;;1.00;;
18580;SDS011;9420;50.876;7.012;2024-03-02T00:38:30;1.57;;;1.03;;
18580;SDS011;9420;50.876;7.012;2024-03-02T00:40:58;3.00;;;1.43;;
18580;SDS011;9420;50.876;7.012;2024-03-02T00:46:18;4.93;;;1.13;;
18580;SDS011;9420;50.876;7.012;2024-03-02T00:48:51;1.43;;;1.00;;
18580;SDS011;9420;50.876;7.012;2024-03-02T00:51:21;2.27;;;1.27;;
18580;SDS011;9420;50.876;7.012;2024-03-02T00:53:49;3.07;;;1.17;;
18580;SDS011;9420;50.876;7.012;2024-03-02T00:56:17;4.10;;;1.87;;
18580;SDS011;9420;50.876;7.012;2024-03-02T00:58:44;1.77;;;1.03;;
18580;SDS011;9420;50.876;7.012;2024-03-02T01:01:11;2.87;;;1.30;;
18580;SDS011;9420;50.876;7.012;2024-03-02T01:03:37;1.70;;;1.20;;
18580;SDS011;9420;50.876;7.012;2024-03-02T01:06:06;1.90;;;1.37;;
18580;SDS011;9420;50.876;7.012;2024-03-02T01:08:35;2.40;;;1.33;;
18580;SDS011;9420;50.876;7.012;2024-03-02T01:11:02;3.73;;;1.40;;
18580;SDS011;9420;50.876;7.012;2024-03-02T01:13:29;3.13;;;1.10;;
18580;SDS011;9420;50.876;7.012;2024-03-02T01:15:56;2.40;;;1.20;;
18580;SDS011;9420;50.876;7.012;2024-03-02T01:18:23;6.60;;;1.10;;
18580;SDS011;9420;50.876;7.012;2024-03-02T01:20:50;2.97;;;2.03;;
18580;SDS011;9420;50.876;7.012;2024-03-02T01:23:18;4.97;;;1.67;;
18580;SDS011;9420;50.876;7.012;2024-03-02T01:25:47;3.33;;;1.30;;
18580;SDS011;9420;50.876;7.012;2024-03-02T01:28:14;3.40;;;1.63;;
18580;SDS011;9420;50.876;7.012;2024-03-02T01:30:40;3.23;;;0.90;;
18580;SDS011;9420;50.876;7.012;2024-03-02T01:33:08;2.23;;;1.23;;
18580;SDS011;9420;50.876;7.012;2024-03-02T01:35:34;1.93;;;1.20;;
18580;SDS011;9420;50.876;7.012;2024-03-02T01:38:02;2.10;;;1.33;;
18580;SDS011;9420;50.876;7.012;2024-03-02T01:40:31;2.40;;;1.20;;
18580;SDS011;9420;50.876;7.012;2024-03-02T01:42:59;4.73;;;1.10;;
18580;SDS011;9420;50.876;7.012;2024-03-02T01:45:27;1.67;;;1.20;;
18580;SDS011;9420;50.876;7.012;2024-03-02T01:47:54;2.90;;;1.40;;
18580;SDS011;9420;50.876;7.012;2024-03-02T01:50:24;2.17;;;1.17;;
18580;SDS011;9420;50.876;7.012;2024-03-02T01:52:52;1.97;;;1.30;;
18580;SDS011;9420;50.876;7.012;2024-03-02T01:55:19;4.17;;;1.33;;
18580;SDS011;9420;50.876;7.012;2024-03-02T01:57:46;2.40;;;0.90;;
18580;SDS011;9420;50.876;7.012;2024-03-02T02:00:15;2.47;;;1.50;;
18580;SDS011;9420;50.876;7.012;2024-03-02T02:02:42;1.77;;;1.17;;
18580;SDS011;9420;50.876;7.012;2024-03-02T02:05:09;2.60;;;1.37;;
18580;SDS011;9420;50.876;7.012;2024-03-02T02:07:36;3.93;;;1.53;;
18580;SDS011;9420;50.876;7.012;2024-03-02T02:10:03;2.97;;;1.20;;
18580;SDS011;9420;50.876;7.012;2024-03-02T02:12:30;2.50;;;1.20;;
18580;SDS011;9420;50.876;7.012;2024-03-02T02:14:57;1.80;;;1.10;;
18580;SDS011;9420;50.876;7.012;2024-03-02T02:17:25;2.43;;;1.47;;
18580;SDS011;9420;50.876;7.012;2024-03-02T02:19:52;1.53;;;1.10;;
18580;SDS011;9420;50.876;7.012;2024-03-02T02:22:20;1.70;;;1.33;;
18580;SDS011;9420;50.876;7.012;2024-03-02T02:24:46;1.97;;;1.10;;
18580;SDS011;9420;50.876;7.012;2024-03-02T02:27:13;2.30;;;1.37;;
18580;SDS011;9420;50.876;7.012;2024-03-02T02:29:40;3.07;;;1.40;;
18580;SDS011;9420;50.876;7.012;2024-03-02T02:32:07;1.73;;;1.30;;
18580;SDS011;9420;50.876;7.012;2024-03-02T02:34:33;3.87;;;1.43;;
18580;SDS011;9420;50.876;7.012;2024-03-02T02:37:00;2.10;;;1.37;;
18580;SDS011;9420;50.876;7.012;2024-03-02T02:39:28;1.57;;;0.90;;
18580;SDS011;9420;50.876;7.012;2024-03-02T02:41:55;2.13;;;1.20;;
18580;SDS011;9420;50.876;7.012;2024-03-02T02:44:22;4.07;;;1.10;;
18580;SDS011;9420;50.876;7.012;2024-03-02T02:46:49;2.33;;;1.37;;
18580;SDS011;9420;50.876;7.012;2024-03-02T02:49:15;4.00;;;1.17;;
18580;SDS011;9420;50.876;7.012;2024-03-02T02:51:42;2.77;;;1.33;;
18580;SDS011;9420;50.876;7.012;2024-03-02T02:54:09;3.53;;;1.47;;
18580;SDS011;9420;50.876;7.012;2024-03-02T02:56:37;2.97;;;1.30;;
18580;SDS011;9420;50.876;7.012;2024-03-02T02:59:03;1.70;;;1.13;;
18580;SDS011;9420;50.876;7.012;2024-03-02T03:01:30;2.40;;;1.23;;
18580;SDS011;9420;50.876;7.012;2024-03-02T03:03:56;2.57;;;1.53;;
18580;SDS011;9420;50.876;7.012;2024-03-02T03:06:23;2.43;;;1.10;;
18580;SDS011;9420;50.876;7.012;2024-03-02T03:08:50;3.43;;;1.33;;
18580;SDS011;9420;50.876;7.012;2024-03-02T03:11:16;2.50;;;0.90;;
18580;SDS011;9420;50.876;7.012;2024-03-02T03:13:44;2.60;;;0.97;;
18580;SDS011;9420;50.876;7.012;2024-03-02T03:16:11;1.30;;;1.00;;
18580;SDS011;9420;50.876;7.012;2024-03-02T03:18:38;1.97;;;1.30;;
18580;SDS011;9420;50.876;7.012;2024-03-02T03:21:04;1.90;;;0.93;;
18580;SDS011;9420;50.876;7.012;2024-03-02T03:23:31;1.77;;;1.47;;
18580;SDS011;9420;50.876;7.012;2024-03-02T03:25:57;2.20;;;1.40;;
18580;SDS011;9420;50.876;7.012;2024-03-02T03:28:24;2.60;;;1.00;;
18580;SDS011;9420;50.876;7.012;2024-03-02T03:30:52;2.47;;;1.07;;
18580;SDS011;9420;50.876;7.012;2024-03-02T03:33:19;1.67;;;1.03;;
18580;SDS011;9420;50.876;7.012;2024-03-02T03:35:45;2.23;;;1.00;;
18580;SDS011;9420;50.876;7.012;2024-03-02T03:38:13;3.70;;;0.90;;
18580;SDS011;9420;50.876;7.012;2024-03-02T03:40:39;6.90;;;1.20;;
18580;SDS011;9420;50.876;7.012;2024-03-02T03:43:06;1.93;;;1.07;;
18580;SDS011;9420;50.876;7.012;2024-03-02T03:45:33;5.07;;;1.30;;
18580;SDS011;9420;50.876;7.012;2024-03-02T03:48:01;1.37;;;0.90;;
18580;SDS011;9420;50.876;7.012;2024-03-02T03:50:28;1.67;;;1.23;;
18580;SDS011;9420;50.876;7.012;2024-03-02T03:52:55;2.77;;;1.20;;
18580;SDS011;9420;50.876;7.012;2024-03-02T03:55:21;4.00;;;1.13;;
18580;SDS011;9420;50.876;7.012;2024-03-02T03:57:48;6.70;;;1.60;;
18580;SDS011;9420;50.876;7.012;2024-03-02T04:00:15;1.70;;;1.30;;
18580;SDS011;9420;50.876;7.012;2024-03-02T04:02:41;2.10;;;1.13;;
18580;SDS011;9420;50.876;7.012;2024-03-02T04:05:09;2.63;;;1.37;;
18580;SDS011;9420;50.876;7.012;2024-03-02T04:07:36;1.60;;;0.90;;
18580;SDS011;9420;50.876;7.012;2024-03-02T04:10:08;1.40;;;1.23;;
18580;SDS011;9420;50.876;7.012;2024-03-02T04:12:37;2.80;;;1.50;;
18580;SDS011;9420;50.876;7.012;2024-03-02T04:15:05;4.00;;;1.40;;
18580;SDS011;9420;50.876;7.012;2024-03-02T04:17:32;3.20;;;1.57;;
18580;SDS011;9420;50.876;7.012;2024-03-02T04:20:00;2.83;;;1.63;;
18580;SDS011;9420;50.876;7.012;2024-03-02T04:22:32;2.23;;;1.23;;
18580;SDS011;9420;50.876;7.012;2024-03-02T04:24:59;3.27;;;1.20;;
18580;SDS011;9420;50.876;7.012;2024-03-02T04:27:25;2.57;;;1.40;;
18580;SDS011;9420;50.876;7.012;2024-03-02T04:29:52;2.37;;;1.37;;
18580;SDS011;9420;50.876;7.012;2024-03-02T04:32:19;3.40;;;1.33;;
18580;SDS011;9420;50.876;7.012;2024-03-02T04:34:45;2.47;;;1.43;;
18580;SDS011;9420;50.876;7.012;2024-03-02T04:37:12;1.53;;;0.97;;
18580;SDS011;9420;50.876;7.012;2024-03-02T04:39:41;2.77;;;1.63;;
18580;SDS011;9420;50.876;7.012;2024-03-02T04:42:07;3.87;;;1.63;;
18580;SDS011;9420;50.876;7.012;2024-03-02T04:44:34;2.47;;;1.57;;
18580;SDS011;9420;50.876;7.012;2024-03-02T04:47:00;3.00;;;1.47;;
18580;SDS011;9420;50.876;7.012;2024-03-02T04:49:27;4.93;;;1.83;;
18580;SDS011;9420;50.876;7.012;2024-03-02T04:51:54;2.27;;;1.40;;
18580;SDS011;9420;50.876;7.012;2024-03-02T04:54:20;2.00;;;1.20;;
18580;SDS011;9420;50.876;7.012;2024-03-02T04:56:48;2.43;;;1.43;;
18580;SDS011;9420;50.876;7.012;2024-03-02T04:59:15;3.93;;;2.00;;
18580;SDS011;9420;50.876;7.012;2024-03-02T05:01:43;2.83;;;1.50;;
18580;SDS011;9420;50.876;7.012;2024-03-02T05:04:09;2.57;;;1.97;;
18580;SDS011;9420;50.876;7.012;2024-03-02T05:06:37;4.00;;;1.83;;
18580;SDS011;9420;50.876;7.012;2024-03-02T05:09:05;2.63;;;1.60;;
18580;SDS011;9420;50.876;7.012;2024-03-02T05:11:31;3.90;;;1.90;;
18580;SDS011;9420;50.876;7.012;2024-03-02T05:14:22;2.90;;;1.87;;
18580;SDS011;9420;50.876;7.012;2024-03-02T05:16:49;2.43;;;1.80;;
18580;SDS011;9420;50.876;7.012;2024-03-02T05:19:16;2.10;;;1.73;;
18580;SDS011;9420;50.876;7.012;2024-03-02T05:21:42;3.40;;;1.80;;
18580;SDS011;9420;50.876;7.012;2024-03-02T05:24:09;2.17;;;1.87;;
18580;SDS011;9420;50.876;7.012;2024-03-02T05:26:36;5.30;;;2.30;;
18580;SDS011;9420;50.876;7.012;2024-03-02T05:29:02;3.33;;;1.90;;
18580;SDS011;9420;50.876;7.012;2024-03-02T05:31:30;2.70;;;1.73;;
18580;SDS011;9420;50.876;7.012;2024-03-02T05:33:57;3.50;;;2.10;;
18580;SDS011;9420;50.876;7.012;2024-03-02T05:36:24;4.27;;;2.50;;
18580;SDS011;9420;50.876;7.012;2024-03-02T05:38:51;5.40;;;2.00;;
18580;SDS011;9420;50.876;7.012;2024-03-02T05:41:17;2.77;;;1.63;;
18580;SDS011;9420;50.876;7.012;2024-03-02T05:43:44;2.80;;;1.70;;
18580;SDS011;9420;50.876;7.012;2024-03-02T05:46:11;3.23;;;1.53;;
18580;SDS011;9420;50.876;7.012;2024-03-02T05:48:39;2.47;;;1.73;;
18580;SDS011;9420;50.876;7.012;2024-03-02T05:51:06;2.60;;;1.93;;
18580;SDS011;9420;50.876;7.012;2024-03-02T05:53:32;2.83;;;1.80;;
18580;SDS011;9420;50.876;7.012;2024-03-02T05:55:59;3.53;;;1.60;;
18580;SDS011;9420;50.876;7.012;2024-03-02T05:58:25;4.67;;;2.57;;
18580;SDS011;9420;50.876;7.012;2024-03-02T06:01:03;4.90;;;2.13;;
18580;SDS011;9420;50.876;7.012;2024-03-02T06:03:30;2.83;;;2.30;;
18580;SDS011;9420;50.876;7.012;2024-03-02T06:05:58;2.47;;;1.87;;
18580;SDS011;9420;50.876;7.012;2024-03-02T06:08:25;4.53;;;2.00;;
18580;SDS011;9420;50.876;7.012;2024-03-02T06:10:52;3.37;;;2.23;;
18580;SDS011;9420;50.876;7.012;2024-03-02T06:13:19;2.03;;;1.80;;
18580;SDS011;9420;50.876;7.012;2024-03-02T06:15:45;3.70;;;2.00;;
18580;SDS011;9420;50.876;7.012;2024-03-02T06:18:12;3.60;;;2.10;;
18580;SDS011;9420;50.876;7.012;2024-03-02T06:20:39;2.87;;;2.10;;
18580;SDS011;9420;50.876;7.012;2024-03-02T06:23:07;4.27;;;1.90;;
18580;SDS011;9420;50.876;7.012;2024-03-02T06:25:33;3.20;;;2.00;;
18580;SDS011;9420;50.876;7.012;2024-03-02T06:28:00;2.17;;;1.97;;
18580;SDS011;9420;50.876;7.012;2024-03-02T06:30:27;4.70;;;2.53;;
18580;SDS011;9420;50.876;7.012;2024-03-02T06:32:54;2.70;;;1.90;;
18580;SDS011;9420;50.876;7.012;2024-03-02T06:35:21;2.70;;;2.10;;
18580;SDS011;9420;50.876;7.012;2024-03-02T06:37:47;5.93;;;2.20;;
18580;SDS011;9420;50.876;7.012;2024-03-02T06:40:16;5.53;;;2.17;;
18580;SDS011;9420;50.876;7.012;2024-03-02T06:42:43;4.10;;;2.10;;
18580;SDS011;9420;50.876;7.012;2024-03-02T06:45:12;2.77;;;2.27;;
18580;SDS011;9420;50.876;7.012;2024-03-02T06:47:38;3.40;;;2.60;;
18580;SDS011;9420;50.876;7.012;2024-03-02T06:50:05;3.87;;;2.33;;
18580;SDS011;9420;50.876;7.012;2024-03-02T06:52:32;3.20;;;2.10;;
18580;SDS011;9420;50.876;7.012;2024-03-02T06:54:59;5.13;;;2.47;;
18580;SDS011;9420;50.876;7.012;2024-03-02T06:57:27;3.23;;;2.60;;
18580;SDS011;9420;50.876;7.012;2024-03-02T06:59:53;4.70;;;2.43;;
18580;SDS011;9420;50.876;7.012;2024-03-02T07:02:23;3.93;;;2.60;;
18580;SDS011;9420;50.876;7.012;2024-03-02T07:04:51;4.27;;;2.00;;
18580;SDS011;9420;50.876;7.012;2024-03-02T07:07:18;6.63;;;3.10;;
18580;SDS011;9420;50.876;7.012;2024-03-02T07:09:45;5.73;;;2.73;;
18580;SDS011;9420;50.876;7.012;2024-03-02T07:12:12;4.53;;;2.60;;
18580;SDS011;9420;50.876;7.012;2024-03-02T07:14:40;5.53;;;2.90;;
18580;SDS011;9420;50.876;7.012;2024-03-02T07:17:24;4.07;;;2.67;;
18580;SDS011;9420;50.876;7.012;2024-03-02T07:19:51;4.40;;;2.47;;
18580;SDS011;9420;50.876;7.012;2024-03-02T07:22:17;5.40;;;3.73;;
18580;SDS011;9420;50.876;7.012;2024-03-02T07:24:44;4.23;;;3.03;;
18580;SDS011;9420;50.876;7.012;2024-03-02T07:27:11;6.37;;;2.43;;
18580;SDS011;9420;50.876;7.012;2024-03-02T07:29:38;4.47;;;2.27;;
18580;SDS011;9420;50.876;7.012;2024-03-02T07:32:06;5.87;;;2.63;;
18580;SDS011;9420;50.876;7.012;2024-03-02T07:34:34;4.50;;;2.50;;
18580;SDS011;9420;50.876;7.012;2024-03-02T07:37:01;4.57;;;2.30;;
18580;SDS011;9420;50.876;7.012;2024-03-02T07:39:28;3.87;;;2.53;;
18580;SDS011;9420;50.876;7.012;2024-03-02T07:41:55;4.10;;;2.83;;
18580;SDS011;9420;50.876;7.012;2024-03-02T07:44:22;4.70;;;2.83;;
18580;SDS011;9420;50.876;7.012;2024-03-02T07:46:49;4.30;;;2.80;;
18580;SDS011;9420;50.876;7.012;2024-03-02T07:49:17;4.00;;;2.70;;
18580;SDS011;9420;50.876;7.012;2024-03-02T07:51:44;4.40;;;2.53;;
18580;SDS011;9420;50.876;7.012;2024-03-02T07:54:11;4.23;;;3.00;;
18580;SDS011;9420;50.876;7.012;2024-03-02T07:56:37;6.20;;;3.30;;
18580;SDS011;9420;50.876;7.012;2024-03-02T07:59:04;8.27;;;2.80;;
18580;SDS011;9420;50.876;7.012;2024-03-02T08:01:32;3.90;;;2.70;;
18580;SDS011;9420;50.876;7.012;2024-03-02T08:03:59;6.33;;;3.03;;
18580;SDS011;9420;50.876;7.012;2024-03-02T08:06:28;5.13;;;3.67;;
18580;SDS011;9420;50.876;7.012;2024-03-02T08:08:54;4.07;;;2.87;;
18580;SDS011;9420;50.876;7.012;2024-03-02T08:11:21;4.73;;;2.63;;
18580;SDS011;9420;50.876;7.012;2024-03-02T08:13:48;4.60;;;2.10;;
18580;SDS011;9420;50.876;7.012;2024-03-02T08:16:15;3.90;;;2.00;;
18580;SDS011;9420;50.876;7.012;2024-03-02T08:18:44;7.63;;;2.27;;
18580;SDS011;9420;50.876;7.012;2024-03-02T08:21:11;5.93;;;1.77;;
18580;SDS011;9420;50.876;7.012;2024-03-02T08:23:39;3.83;;;2.10;;
18580;SDS011;9420;50.876;7.012;2024-03-02T08:26:07;4.40;;;1.83;;
18580;SDS011;9420;50.876;7.012;2024-03-02T08:28:34;2.50;;;1.87;;
18580;SDS011;9420;50.876;7.012;2024-03-02T08:31:02;3.67;;;2.20;;
18580;SDS011;9420;50.876;7.012;2024-03-02T08:33:28;4.37;;;2.00;;
18580;SDS011;9420;50.876;7.012;2024-03-02T08:35:55;3.53;;;1.70;;
18580;SDS011;9420;50.876;7.012;2024-03-02T08:38:23;3.77;;;1.93;;
18580;SDS011;9420;50.876;7.012;2024-03-02T08:40:52;3.37;;;1.47;;
18580;SDS011;9420;50.876;7.012;2024-03-02T08:43:19;2.83;;;1.57;;
18580;SDS011;9420;50.876;7.012;2024-03-02T08:45:47;5.77;;;1.87;;
18580;SDS011;9420;50.876;7.012;2024-03-02T08:48:15;3.57;;;1.67;;
18580;SDS011;9420;50.876;7.012;2024-03-02T08:50:42;2.83;;;1.77;;
18580;SDS011;9420;50.876;7.012;2024-03-02T08:53:09;5.10;;;1.73;;
18580;SDS011;9420;50.876;7.012;2024-03-02T08:55:36;1.43;;;1.00;;
18580;SDS011;9420;50.876;7.012;2024-03-02T08:58:04;2.20;;;1.47;;
18580;SDS011;9420;50.876;7.012;2024-03-02T09:00:31;4.07;;;1.87;;
18580;SDS011;9420;50.876;7.012;2024-03-02T09:02:57;4.00;;;2.20;;
18580;SDS011;9420;50.876;7.012;2024-03-02T09:05:24;2.57;;;1.80;;
18580;SDS011;9420;50.876;7.012;2024-03-02T09:07:51;4.40;;;1.80;;
18580;SDS011;9420;50.876;7.012;2024-03-02T09:10:17;4.67;;;1.20;;
18580;SDS011;9420;50.876;7.012;2024-03-02T09:12:44;4.83;;;1.97;;
18580;SDS011;9420;50.876;7.012;2024-03-02T09:15:12;3.90;;;1.87;;
18580;SDS011;9420;50.876;7.012;2024-03-02T09:17:39;3.13;;;1.50;;
18580;SDS011;9420;50.876;7.012;2024-03-02T09:20:06;2.33;;;1.67;;
18580;SDS011;9420;50.876;7.012;2024-03-02T09:22:33;4.23;;;1.80;;
18580;SDS011;9420;50.876;7.012;2024-03-02T09:24:59;4.77;;;1.57;;
18580;SDS011;9420;50.876;7.012;2024-03-02T09:27:26;4.30;;;1.30;;
18580;SDS011;9420;50.876;7.012;2024-03-02T09:29:53;2.93;;;1.37;;
18580;SDS011;9420;50.876;7.012;2024-03-02T09:32:21;2.40;;;1.20;;
18580;SDS011;9420;50.876;7.012;2024-03-02T09:34:48;3.30;;;1.50;;
18580;SDS011;9420;50.876;7.012;2024-03-02T09:37:15;3.57;;;1.80;;
18580;SDS011;9420;50.876;7.012;2024-03-02T09:39:43;3.47;;;1.30;;
18580;SDS011;9420;50.876;7.012;2024-03-02T09:42:10;1.83;;;1.20;;
18580;SDS011;9420;50.876;7.012;2024-03-02T09:44:38;3.20;;;1.27;;
18580;SDS011;9420;50.876;7.012;2024-03-02T09:47:06;4.10;;;1.60;;
18580;SDS011;9420;50.876;7.012;2024-03-02T09:49:34;2.80;;;1.40;;
18580;SDS011;9420;50.876;7.012;2024-03-02T09:52:01;3.03;;;2.10;;
18580;SDS011;9420;50.876;7.012;2024-03-02T09:54:31;3.33;;;1.67;;
18580;SDS011;9420;50.876;7.012;2024-03-02T09:56:57;3.50;;;1.97;;
18580;SDS011;9420;50.876;7.012;2024-03-02T09:59:26;1.70;;;1.17;;
18580;SDS011;9420;50.876;7.012;2024-03-02T10:01:57;1.63;;;1.03;;
18580;SDS011;9420;50.876;7.012;2024-03-02T10:04:25;2.03;;;1.30;;
18580;SDS011;9420;50.876;7.012;2024-03-02T10:07:02;2.43;;;1.90;;
18580;SDS011;9420;50.876;7.012;2024-03-02T10:09:37;3.17;;;1.33;;
18580;SDS011;9420;50.876;7.012;2024-03-02T10:12:03;5.83;;;1.93;;
18580;SDS011;9420;50.876;7.012;2024-03-02T10:14:31;4.73;;;1.47;;
18580;SDS011;9420;50.876;7.012;2024-03-02T10:17:01;5.27;;;1.33;;
18580;SDS011;9420;50.876;7.012;2024-03-02T10:19:28;3.53;;;1.40;;
18580;SDS011;9420;50.876;7.012;2024-03-02T10:21:58;2.67;;;1.63;;
18580;SDS011;9420;50.876;7.012;2024-03-02T10:24:27;6.50;;;1.50;;
18580;SDS011;9420;50.876;7.012;2024-03-02T10:26:53;4.03;;;1.60;;
18580;SDS011;9420;50.876;7.012;2024-03-02T10:29:22;4.23;;;1.60;;
18580;SDS011;9420;50.876;7.012;2024-03-02T10:31:48;3.83;;;1.50;;
18580;SDS011;9420;50.876;7.012;2024-03-02T10:34:15;2.40;;;1.40;;
18580;SDS011;9420;50.876;7.012;2024-03-02T10:36:42;3.07;;;1.97;;
18580;SDS011;9420;50.876;7.012;2024-03-02T10:39:11;6.60;;;2.20;;
18580;SDS011;9420;50.876;7.012;2024-03-02T10:41:40;4.20;;;2.27;;
18580;SDS011;9420;50.876;7.012;2024-03-02T10:44:07;5.80;;;1.87;;
18580;SDS011;9420;50.876;7.012;2024-03-02T10:46:36;7.10;;;2.27;;
18580;SDS011;9420;50.876;7.012;2024-03-02T10:49:04;2.47;;;1.77;;
18580;SDS011;9420;50.876;7.012;2024-03-02T10:51:31;3.37;;;1.60;;
18580;SDS011;9420;50.876;7.012;2024-03-02T10:54:01;2.87;;;1.27;;
18580;SDS011;9420;50.876;7.012;2024-03-02T10:56:29;3.43;;;1.23;;
18580;SDS011;9420;50.876;7.012;2024-03-02T10:59:01;5.17;;;1.53;;
18580;SDS011;9420;50.876;7.012;2024-03-02T11:01:29;2.07;;;1.27;;
18580;SDS011;9420;50.876;7.012;2024-03-02T11:03:59;3.53;;;1.13;;
18580;SDS011;9420;50.876;7.012;2024-03-02T11:06:30;7.40;;;1.60;;
18580;SDS011;9420;50.876;7.012;2024-03-02T11:09:00;2.63;;;1.67;;
18580;SDS011;9420;50.876;7.012;2024-03-02T11:11:35;4.37;;;1.87;;
18580;SDS011;9420;50.876;7.012;2024-03-02T11:14:06;2.97;;;1.17;;
18580;SDS011;9420;50.876;7.012;2024-03-02T11:16:34;3.53;;;1.43;;
18580;SDS011;9420;50.876;7.012;2024-03-02T11:19:03;3.67;;;1.67;;
18580;SDS011;9420;50.876;7.012;2024-03-02T11:21:33;1.73;;;1.20;;
18580;SDS011;9420;50.876;7.012;2024-03-02T11:24:00;1.83;;;1.17;;
18580;SDS011;9420;50.876;7.012;2024-03-02T11:26:28;7.07;;;1.63;;
18580;SDS011;9420;50.876;7.012;2024-03-02T11:28:54;3.00;;;1.70;;
18580;SDS011;9420;50.876;7.012;2024-03-02T11:31:38;2.90;;;1.40;;
18580;SDS011;9420;50.876;7.012;2024-03-02T11:34:28;3.57;;;1.37;;
18580;SDS011;9420;50.876;7.012;2024-03-02T11:36:55;1.93;;;1.40;;
18580;SDS011;9420;50.876;7.012;2024-03-02T11:39:22;1.27;;;1.00;;
18580;SDS011;9420;50.876;7.012;2024-03-02T11:41:49;2.43;;;1.10;;
18580;SDS011;9420;50.876;7.012;2024-03-02T11:44:16;3.63;;;1.70;;
18580;SDS011;9420;50.876;7.012;2024-03-02T11:46:45;3.60;;;1.47;;
18580;SDS011;9420;50.876;7.012;2024-03-02T11:49:20;3.77;;;1.40;;
18580;SDS011;9420;50.876;7.012;2024-03-02T11:52:02;1.93;;;1.37;;
18580;SDS011;9420;50.876;7.012;2024-03-02T11:54:31;1.57;;;1.20;;
18580;SDS011;9420;50.876;7.012;2024-03-02T11:56:59;4.57;;;1.30;;
18580;SDS011;9420;50.876;7.012;2024-03-02T11:59:28;2.83;;;1.40;;
18580;SDS011;9420;50.876;7.012;2024-03-02T12:01:57;3.57;;;1.63;;
18580;SDS011;9420;50.876;7.012;2024-03-02T12:04:24;1.67;;;0.93;;
18580;SDS011;9420;50.876;7.012;2024-03-02T12:06:54;1.13;;;1.00;;
18580;SDS011;9420;50.876;7.012;2024-03-02T12:09:21;3.33;;;0.90;;
18580;SDS011;9420;50.876;7.012;2024-03-02T12:11:48;2.47;;;1.00;;
18580;SDS011;9420;50.876;7.012;2024-03-02T12:14:28;1.17;;;0.80;;
18580;SDS011;9420;50.876;7.012;2024-03-02T12:16:56;1.47;;;1.00;;
18580;SDS011;9420;50.876;7.012;2024-03-02T12:19:23;3.40;;;1.27;;
18580;SDS011;9420;50.876;7.012;2024-03-02T12:21:50;0.87;;;0.50;;
18580;SDS011;9420;50.876;7.012;2024-03-02T12:24:17;0.93;;;0.70;;
18580;SDS011;9420;50.876;7.012;2024-03-02T12:26:44;1.20;;;0.60;;
18580;SDS011;9420;50.876;7.012;2024-03-02T12:29:12;1.00;;;0.73;;
18580;SDS011;9420;50.876;7.012;2024-03-02T12:31:38;2.53;;;1.10;;
18580;SDS011;9420;50.876;7.012;2024-03-02T12:34:07;0.60;;;0.50;;
18580;SDS011;9420;50.876;7.012;2024-03-02T12:36:36;2.07;;;0.90;;
18580;SDS011;9420;50.876;7.012;2024-03-02T12:39:03;1.00;;;0.70;;
18580;SDS011;9420;50.876;7.012;2024-03-02T12:41:30;4.30;;;0.90;;
18580;SDS011;9420;50.876;7.012;2024-03-02T12:43:57;1.42;;;0.70;;
18580;SDS011;9420;50.876;7.012;2024-03-02T12:46:24;1.20;;;0.88;;
18580;SDS011;9420;50.876;7.012;2024-03-02T12:48:51;2.72;;;0.85;;
18580;SDS011;9420;50.876;7.012;2024-03-02T12:51:19;0.80;;;0.70;;
18580;SDS011;9420;50.876;7.012;2024-03-02T12:53:45;0.80;;;0.80;;
18580;SDS011;9420;50.876;7.012;2024-03-02T12:56:18;1.97;;;1.00;;
18580;SDS011;9420;50.876;7.012;2024-03-02T12:58:45;1.50;;;1.17;;
18580;SDS011;9420;50.876;7.012;2024-03-02T13:01:14;2.17;;;1.03;;
18580;SDS011;9420;50.876;7.012;2024-03-02T13:03:44;1.30;;;1.00;;
18580;SDS011;9420;50.876;7.012;2024-03-02T13:06:10;1.53;;;0.80;;
18580;SDS011;9420;50.876;7.012;2024-03-02T13:08:38;2.90;;;1.00;;
18580;SDS011;9420;50.876;7.012;2024-03-02T13:11:05;2.60;;;1.05;;
18580;SDS011;9420;50.876;7.012;2024-03-02T13:13:32;1.13;;;0.50;;
18580;SDS011;9420;50.876;7.012;2024-03-02T13:15:59;0.95;;;0.65;;
18580;SDS011;9420;50.876;7.012;2024-03-02T13:18:27;0.82;;;0.50;;
18580;SDS011;9420;50.876;7.012;2024-03-02T13:20:56;1.83;;;0.65;;
18580;SDS011;9420;50.876;7.012;2024-03-02T13:23:23;2.25;;;0.77;;
18580;SDS011;9420;50.876;7.012;2024-03-02T13:25:51;0.80;;;0.50;;
18580;SDS011;9420;50.876;7.012;2024-03-02T13:28:17;1.73;;;0.80;;
18580;SDS011;9420;50.876;7.012;2024-03-02T13:30:44;1.10;;;0.53;;
18580;SDS011;9420;50.876;7.012;2024-03-02T13:33:11;3.60;;;0.80;;
18580;SDS011;9420;50.876;7.012;2024-03-02T13:35:37;0.93;;;0.50;;
18580;SDS011;9420;50.876;7.012;2024-03-02T13:38:04;0.80;;;0.53;;
18580;SDS011;9420;50.876;7.012;2024-03-02T13:40:30;0.53;;;0.40;;
18580;SDS011;9420;50.876;7.012;2024-03-02T13:43:02;2.83;;;0.67;;
18580;SDS011;9420;50.876;7.012;2024-03-02T13:45:28;1.73;;;0.50;;
18580;SDS011;9420;50.876;7.012;2024-03-02T13:47:55;0.83;;;0.40;;
18580;SDS011;9420;50.876;7.012;2024-03-02T13:50:22;2.30;;;0.40;;
18580;SDS011;9420;50.876;7.012;2024-03-02T13:52:48;0.63;;;0.57;;
18580;SDS011;9420;50.876;7.012;2024-03-02T13:55:15;2.53;;;0.73;;
18580;SDS011;9420;50.876;7.012;2024-03-02T13:57:42;3.50;;;0.77;;
18580;SDS011;9420;50.876;7.012;2024-03-02T14:00:10;1.17;;;0.57;;
18580;SDS011;9420;50.876;7.012;2024-03-02T14:02:38;1.80;;;0.80;;
18580;SDS011;9420;50.876;7.012;2024-03-02T14:05:05;1.37;;;0.53;;
18580;SDS011;9420;50.876;7.012;2024-03-02T14:07:35;1.93;;;0.60;;
18580;SDS011;9420;50.876;7.012;2024-03-02T14:10:03;1.10;;;0.73;;
18580;SDS011;9420;50.876;7.012;2024-03-02T14:12:30;0.97;;;0.60;;
18580;SDS011;9420;50.876;7.012;2024-03-02T14:14:57;0.60;;;0.60;;
18580;SDS011;9420;50.876;7.012;2024-03-02T14:17:25;1.60;;;0.60;;
18580;SDS011;9420;50.876;7.012;2024-03-02T14:19:52;0.90;;;0.60;;
18580;SDS011;9420;50.876;7.012;2024-03-02T14:22:19;1.37;;;0.97;;
18580;SDS011;9420;50.876;7.012;2024-03-02T14:24:46;1.70;;;1.50;;
18580;SDS011;9420;50.876;7.012;2024-03-02T14:27:13;0.77;;;0.70;;
18580;SDS011;9420;50.876;7.012;2024-03-02T14:29:40;2.00;;;1.03;;
18580;SDS011;9420;50.876;7.012;2024-03-02T14:32:06;1.10;;;0.80;;
18580;SDS011;9420;50.876;7.012;2024-03-02T14:34:34;3.20;;;0.83;;
18580;SDS011;9420;50.876;7.012;2024-03-02T14:37:01;1.73;;;0.87;;
18580;SDS011;9420;50.876;7.012;2024-03-02T14:39:28;1.83;;;0.70;;
18580;SDS011;9420;50.876;7.012;2024-03-02T14:41:54;2.33;;;1.10;;
18580;SDS011;9420;50.876;7.012;2024-03-02T14:44:21;2.07;;;1.07;;
18580;SDS011;9420;50.876;7.012;2024-03-02T14:46:48;3.83;;;0.93;;
18580;SDS011;9420;50.876;7.012;2024-03-02T14:49:15;2.77;;;1.07;;
18580;SDS011;9420;50.876;7.012;2024-03-02T14:51:43;2.40;;;0.93;;
18580;SDS011;9420;50.876;7.012;2024-03-02T14:54:10;1.33;;;0.40;;
18580;SDS011;9420;50.876;7.012;2024-03-02T14:56:36;1.20;;;0.63;;
18580;SDS011;9420;50.876;7.012;2024-03-02T14:59:03;1.37;;;0.90;;
18580;SDS011;9420;50.876;7.012;2024-03-02T15:01:30;1.37;;;0.80;;
18580;SDS011;9420;50.876;7.012;2024-03-02T15:03:56;1.20;;;0.60;;
18580;SDS011;9420;50.876;7.012;2024-03-02T15:06:23;1.80;;;0.80;;